Kezdőlap
METAR-TAF:

METAR-TAF

Repülőterek :

Parma, Olaszország

földrajzi szélesség: 44-49-17N, földrajzi hosszúság: 010-17-41E, magasság: 50 m

Jelenlegi meteorológiai megfigyelések

A jelentés 34 perccel ezelõtt készült, 18:50 UTC
Nyugat-északnyugati szél 5 kt
Hőmérséklet 7°C
Páratartalom 100%
Légköri nyomás 1019 hPa
Látótávolság 10 km, vagy több
felhőtlen 1500 m magasságban, és nincs gomolyfelhõ

METAR: LIMP 191850Z 30005KT CAVOK 07/07 Q1019

Idő: 20:24 (19:24 UTC)

Előrejelzés

A jelentés 2 órával és 24 perccel ezelõtt készült, 17:00 UTC
Az előrejelzés 19-én 18 óra UTC és 20-én 18 óra UTC között érvényes
Nyugat-északnyugati szél 10 kt
Látótávolság 10 km, vagy több
felhőtlen 1500 m magasságban, és nincs gomolyfelhõ
19-én 18 óra UTC és 19-én 20 óra UTC között fokozatosan kialakuló
Különbözõ irányokból fújó szél 5 kt

TAF: LIMP 191700Z 1918/2018 30010KT CAVOK BECMG 1918/1920 VRB05KT

Meteorológiai megfigyelések és előrejelzések több, mint 4000 repülőtéren (METAR és TAF jelentéseket).

A térképen piros és sárga pontok jelzik az elérhető meteorológiai állomásokat.

Mozgassa az egeret a pont fölött, hogy megjelenjen az állomás neve.

Azután kattintson az időjárási megfigyelések és előrejelzések megtekintéséhez.

A térkép megváltoztatása: kattintson a fekete keresztel jelölt zöld gombra ráközelítéshez, a vonallal jelölt zöld gombra távolításhoz, vagy a zöld nyilakra a szomszédos térképek eléréséhez.


METAR-TAF: